TimeMST,TemperatureF,Dew PointF,Humidity,Sea Level PressureIn,VisibilityMPH,Wind Direction,Wind SpeedMPH,Gust SpeedMPH,PrecipitationIn,Events,Conditions,WindDirDegrees,DateUTC
12:53 AM,36.0,32.0,86,30.39,10.0,ENE,3.5,-,N/A,,Clear,60,2013-03-02 07:53:00
1:53 AM,32.0,28.9,88,30.39,10.0,Calm,Calm,-,N/A,,Clear,0,2013-03-02 08:53:00
2:53 AM,32.0,30.0,92,30.38,10.0,Calm,Calm,-,N/A,,Clear,0,2013-03-02 09:53:00
3:53 AM,35.6,32.0,87,30.32,10.0,Calm,Calm,-,N/A,,Clear,0,2013-03-02 10:53:00
4:53 AM,30.9,28.9,92,30.37,10.0,Calm,Calm,-,N/A,,Clear,0,2013-03-02 11:53:00
5:53 AM,28.9,27.0,92,30.38,10.0,Calm,Calm,-,N/A,,Clear,0,2013-03-02 12:53:00
6:53 AM,30.0,28.9,96,30.37,10.0,Calm,Calm,-,N/A,,Clear,0,2013-03-02 13:53:00
7:53 AM,30.9,28.9,92,30.35,10.0,Calm,Calm,-,N/A,,Clear,0,2013-03-02 14:53:00
8:53 AM,33.1,30.9,92,30.34,10.0,West,3.5,-,N/A,,Clear,270,2013-03-02 15:53:00
9:53 AM,35.1,33.1,92,30.32,10.0,West,3.5,-,N/A,,Clear,270,2013-03-02 16:53:00
10:53 AM,39.9,34.0,79,30.29,10.0,Calm,Calm,-,N/A,,Mostly Cloudy,0,2013-03-02 17:53:00
11:53 AM,45.0,34.0,65,30.25,10.0,Calm,Calm,-,N/A,,Scattered Clouds,0,2013-03-02 18:53:00
12:53 PM,46.0,35.1,66,30.22,10.0,South,4.6,-,N/A,,Overcast,190,2013-03-02 19:53:00
1:53 PM,48.0,34.0,58,30.18,10.0,Calm,Calm,-,N/A,,Mostly Cloudy,0,2013-03-02 20:53:00
2:53 PM,51.1,35.1,54,30.14,10.0,Calm,Calm,-,N/A,,Partly Cloudy,0,2013-03-02 21:53:00
3:53 PM,52.0,34.0,50,30.09,10.0,Calm,Calm,-,N/A,,Mostly Cloudy,0,2013-03-02 22:53:00
4:53 PM,51.1,36.0,56,30.08,10.0,WNW,5.8,-,N/A,,Overcast,300,2013-03-02 23:53:00
5:53 PM,48.9,37.0,64,30.06,10.0,WNW,4.6,-,N/A,,Overcast,300,2013-03-03 00:53:00
6:53 PM,48.9,34.0,56,30.04,10.0,NW,10.4,-,N/A,,Overcast,320,2013-03-03 01:53:00
7:53 PM,46.9,36.0,66,30.04,10.0,NW,16.1,21.9,N/A,,Overcast,320,2013-03-03 02:53:00
8:53 PM,44.1,37.9,79,30.04,10.0,NW,9.2,-,0.00,Rain,Light Rain,320,2013-03-03 03:53:00
9:53 PM,43.0,39.0,86,30.02,10.0,NW,5.8,-,0.01,Rain,Light Rain,320,2013-03-03 04:53:00
10:53 PM,41.0,39.0,93,30.00,10.0,WNW,3.5,-,0.02,Rain,Light Rain,290,2013-03-03 05:53:00
11:13 PM,39.2,39.2,100,29.96,10.0,West,4.6,-,0.00,,Overcast,270,2013-03-03 06:13:00
11:53 PM,39.9,39.0,97,29.98,10.0,Calm,Calm,-,0.00,,Overcast,0,2013-03-03 06:53:00